Time;durP1;ratioP1;P1;durP2;ratioP2;P2;SDS_P1;SDS_P2;PMS_P1;PMS_P2;Temp;Humidity;BMP_temperature;BMP_pressure;BME280_temperature;BME280_humidity;BME280_pressure;Samples;Min_cycle;Max_cycle;Signal;HPM_P1;HPM_P2
2021/10/07 00:00:19;;;;;;;10.35;3.45;;;;;;;1.73;60.13;102744.97;1748657;82;21018;-53
2021/10/07 00:02:45;;;;;;;5.75;2.40;;;;;;;1.76;60.40;102748.10;1748449;82;20889;-53
2021/10/07 00:05:12;;;;;;;10.53;2.47;;;;;;;1.74;60.05;102744.17;1748702;82;21015;-53
2021/10/07 00:07:38;;;;;;;7.80;2.50;;;;;;;1.69;60.28;102746.50;1748585;82;21143;-53
2021/10/07 00:10:06;;;;;;;5.03;2.90;;;;;;;1.64;60.51;102750.48;1748651;82;20941;-53
2021/10/07 00:12:33;;;;;;;10.82;2.33;;;;;;;1.54;60.67;102747.81;1748765;82;20921;-53
2021/10/07 00:15:00;;;;;;;4.55;2.65;;;;;;;1.47;60.94;102753.34;1748631;82;21422;-52
2021/10/07 00:17:26;;;;;;;9.28;2.60;;;;;;;1.38;61.30;102747.73;1748612;82;21487;-52
2021/10/07 00:19:52;;;;;;;12.70;2.47;;;;;;;1.32;61.68;102749.53;1748563;82;21132;-53
2021/10/07 00:22:20;;;;;;;15.25;2.77;;;;;;;1.21;62.02;102744.23;1720941;82;21581;-52
2021/10/07 00:24:46;;;;;;;7.70;3.02;;;;;;;1.12;62.00;102742.03;1748537;82;20976;-53
2021/10/07 00:27:13;;;;;;;8.00;2.95;;;;;;;1.07;62.09;102746.00;1748548;82;21459;-52
2021/10/07 00:29:44;;;;;;;17.35;3.35;;;;;;;1.04;62.16;102740.31;1721070;82;21007;-53
2021/10/07 00:32:14;;;;;;;13.58;2.80;;;;;;;1.02;62.63;102739.34;1748764;82;21107;-53
2021/10/07 00:39:53;;;;;;;6.83;2.80;;;;;;;0.93;62.73;102749.03;1748611;82;20920;-53
2021/10/07 00:42:19;;;;;;;6.65;2.50;;;;;;;0.88;62.68;102749.13;1747309;82;21022;-52
2021/10/07 00:44:46;;;;;;;6.35;2.58;;;;;;;0.84;62.99;102749.37;1745977;82;21168;-50
2021/10/07 00:47:15;;;;;;;10.10;2.52;;;;;;;0.79;63.22;102745.67;1745969;82;20980;-51
2021/10/07 00:49:41;;;;;;;5.42;2.85;;;;;;;0.71;63.47;102744.81;1745911;82;20956;-51
2021/10/07 00:52:13;;;;;;;7.55;2.70;;;;;;;0.67;63.92;102742.01;1746024;82;20975;-51
2021/10/07 00:54:39;;;;;;;8.10;2.37;;;;;;;0.64;63.95;102746.93;1745942;80;21525;-51
2021/10/07 00:57:07;;;;;;;14.40;2.83;;;;;;;0.64;63.98;102746.93;1724837;82;21785;-51
2021/10/07 00:59:33;;;;;;;6.87;3.47;;;;;;;0.61;64.50;102748.89;1735621;82;20889;-51
2021/10/07 01:02:06;;;;;;;9.25;2.58;;;;;;;0.58;64.25;102741.06;1724893;82;20936;-50
2021/10/07 01:04:32;;;;;;;7.25;2.60;;;;;;;0.55;64.40;102746.84;1745934;82;20909;-50
2021/10/07 01:06:59;;;;;;;6.85;2.40;;;;;;;0.49;64.86;102746.87;1746277;82;21011;-51
2021/10/07 01:09:27;;;;;;;8.28;2.22;;;;;;;0.42;64.87;102752.02;1746225;80;21135;-51
2021/10/07 01:11:56;;;;;;;7.12;2.55;;;;;;;0.35;65.14;102758.78;1745969;82;21506;-51
2021/10/07 01:14:45;;;;;;;6.28;2.60;;;;;;;0.26;65.59;102755.31;1746117;82;21007;-50
2021/10/07 01:17:16;;;;;;;7.45;2.72;;;;;;;0.14;66.04;102755.03;1746064;82;21007;-52
2021/10/07 01:19:50;;;;;;;6.03;2.55;;;;;;;0.03;66.43;102756.42;1746076;82;20936;-51
2021/10/07 01:22:17;;;;;;;5.70;2.70;;;;;;;-0.09;66.87;102756.16;1746033;80;21121;-52
2021/10/07 01:24:44;;;;;;;11.48;3.02;;;;;;;-0.18;67.20;102757.74;1746080;82;21055;-51
2021/10/07 01:27:10;;;;;;;8.50;2.98;;;;;;;-0.19;67.21;102759.80;1746140;80;20944;-52
2021/10/07 01:29:38;;;;;;;12.13;2.62;;;;;;;-0.20;67.76;102759.69;1745893;82;22156;-52
2021/10/07 01:32:06;;;;;;;8.53;3.10;;;;;;;-0.25;67.90;102760.69;1746059;82;22242;-52
2021/10/07 01:34:32;;;;;;;4.90;2.40;;;;;;;-0.30;68.07;102760.39;1746020;82;21257;-53
2021/10/07 01:36:59;;;;;;;6.72;2.47;;;;;;;-0.39;68.41;102762.33;1745971;82;21252;-53
2021/10/07 01:39:25;;;;;;;8.28;2.95;;;;;;;-0.52;68.67;102764.48;1746071;81;20920;-52
2021/10/07 01:41:52;;;;;;;10.08;4.92;;;;;;;-0.65;69.18;102770.86;1748188;81;20928;-53
2021/10/07 01:44:20;;;;;;;17.95;6.33;;;;;;;-0.76;69.41;102770.16;1764753;81;20992;-52
2021/10/07 01:46:47;;;;;;;20.95;8.03;;;;;;;-0.87;69.66;102765.26;1764640;81;21077;-53
2021/10/07 01:49:13;;;;;;;34.08;11.05;;;;;;;-0.95;70.16;102767.67;1764377;81;20933;-52
2021/10/07 01:51:40;;;;;;;19.20;7.20;;;;;;;-1.00;70.45;102774.12;1764619;80;21407;-52
2021/10/07 01:54:06;;;;;;;12.90;5.83;;;;;;;-1.05;70.77;102766.58;1764528;81;21487;-52
2021/10/07 01:56:33;;;;;;;15.98;5.28;;;;;;;-1.11;71.24;102768.72;1764316;81;20969;-52
2021/10/07 01:59:00;;;;;;;12.03;4.65;;;;;;;-1.12;71.75;102771.64;1764366;81;21215;-52
2021/10/07 02:01:27;;;;;;;8.00;3.42;;;;;;;-1.12;71.77;102770.77;1764424;81;20897;-52
2021/10/07 02:03:53;;;;;;;8.43;3.58;;;;;;;-1.11;71.94;102776.35;1736412;81;20948;-51
2021/10/07 02:06:20;;;;;;;9.43;3.20;;;;;;;-1.10;72.52;102770.08;1764560;81;21019;-52
2021/10/07 02:08:46;;;;;;;12.90;3.22;;;;;;;-1.07;72.38;102772.82;1764481;81;20972;-52
2021/10/07 02:11:13;;;;;;;10.78;3.12;;;;;;;-1.02;72.29;102775.68;1764480;81;21068;-52
2021/10/07 02:13:40;;;;;;;10.35;3.47;;;;;;;-0.95;72.21;102778.25;1764402;81;20972;-52
2021/10/07 02:16:06;;;;;;;9.50;3.15;;;;;;;-0.89;72.11;102776.96;1764523;81;21031;-52
2021/10/07 02:18:33;;;;;;;7.05;3.05;;;;;;;-0.84;71.87;102784.05;1764518;81;20985;-53
2021/10/07 02:20:59;;;;;;;9.15;2.83;;;;;;;-0.80;71.64;102782.19;1764425;81;21027;-52
2021/10/07 02:23:26;;;;;;;4.42;2.70;;;;;;;-0.75;71.40;102791.89;1736359;81;21101;-52
2021/10/07 02:25:52;;;;;;;6.20;3.10;;;;;;;-0.65;71.44;102788.26;1764404;81;20937;-50
2021/10/07 02:28:18;;;;;;;14.20;2.70;;;;;;;-0.54;70.99;102794.45;1764527;81;21522;-52
2021/10/07 02:30:45;;;;;;;7.03;2.37;;;;;;;-0.50;70.70;102796.03;1764610;81;20980;-51
2021/10/07 02:33:12;;;;;;;7.58;2.70;;;;;;;-0.46;70.47;102790.73;1764485;81;21020;-52
2021/10/07 02:35:40;;;;;;;7.62;2.35;;;;;;;-0.44;70.39;102794.25;1764546;81;21187;-52
2021/10/07 02:38:06;;;;;;;7.90;2.65;;;;;;;-0.48;70.50;102797.39;1736969;81;20934;-52
2021/10/07 02:40:33;;;;;;;11.57;2.77;;;;;;;-0.52;70.47;102795.02;1764605;81;20992;-52
2021/10/07 02:42:59;;;;;;;8.75;2.50;;;;;;;-0.55;70.52;102795.23;1756142;81;21030;-52
2021/10/07 02:45:26;;;;;;;17.87;3.00;;;;;;;-0.59;70.78;102794.14;1746091;82;20932;-52
2021/10/07 02:47:53;;;;;;;6.33;2.85;;;;;;;-0.64;70.85;102792.56;1746022;82;21087;-53
2021/10/07 02:50:22;;;;;;;4.92;3.33;;;;;;;-0.71;71.00;102795.50;1746022;80;20932;-52
2021/10/07 02:52:48;;;;;;;5.83;2.95;;;;;;;-0.75;71.42;102796.09;1745996;82;21542;-52
2021/10/07 02:55:15;;;;;;;10.80;3.00;;;;;;;-0.82;71.72;102793.92;1746062;82;21475;-53
2021/10/07 02:57:41;;;;;;;7.92;3.00;;;;;;;-0.89;71.96;102792.23;1746017;82;21604;-52
2021/10/07 03:00:10;;;;;;;17.17;3.20;;;;;;;-0.96;72.16;102790.06;1746007;82;22322;-52
2021/10/07 03:02:39;;;;;;;11.57;2.98;;;;;;;-1.04;72.40;102790.82;1746009;82;20967;-51
2021/10/07 03:05:07;;;;;;;7.37;2.80;;;;;;;-1.08;72.49;102786.72;1746165;82;21000;-52
2021/10/07 03:07:34;;;;;;;11.03;3.25;;;;;;;-1.13;72.75;102794.44;1745876;82;21478;-52
2021/10/07 03:10:01;;;;;;;10.75;3.72;;;;;;;-1.21;72.88;102790.97;1745843;80;20964;-52
2021/10/07 03:12:27;;;;;;;6.20;3.47;;;;;;;-1.27;73.00;102797.28;1745814;81;21245;-52
2021/10/07 03:14:55;;;;;;;14.15;3.72;;;;;;;-1.33;73.18;102797.77;1725189;82;20932;-52
2021/10/07 03:17:22;;;;;;;7.12;3.58;;;;;;;-1.41;73.65;102798.89;1745968;80;21430;-52
2021/10/07 03:19:48;;;;;;;10.90;3.62;;;;;;;-1.51;73.90;102794.87;1746033;82;21434;-52
2021/10/07 03:22:16;;;;;;;8.65;3.27;;;;;;;-1.58;74.19;102803.72;1745948;82;21008;-52
2021/10/07 03:24:45;;;;;;;9.68;3.45;;;;;;;-1.66;74.55;102799.73;1745998;82;21818;-52
2021/10/07 03:27:11;;;;;;;14.63;3.12;;;;;;;-1.74;74.78;102800.50;1745904;82;21018;-51
2021/10/07 03:29:38;;;;;;;5.37;3.08;;;;;;;-1.80;75.25;102802.22;1746074;82;20924;-52
2021/10/07 03:32:06;;;;;;;11.22;3.30;;;;;;;-1.84;75.39;102805.32;1746069;82;20995;-52
2021/10/07 03:34:33;;;;;;;17.67;3.15;;;;;;;-1.88;75.70;102810.97;1746030;82;21013;-51
2021/10/07 03:36:59;;;;;;;9.70;3.52;;;;;;;-1.92;75.84;102810.23;1746076;82;21151;-52
2021/10/07 03:39:26;;;;;;;9.83;3.45;;;;;;;-1.95;76.15;102812.55;1745981;82;21510;-52
2021/10/07 03:41:52;;;;;;;21.05;3.95;;;;;;;-1.95;76.35;102811.28;1745960;82;21601;-52
2021/10/07 03:44:18;;;;;;;17.30;6.10;;;;;;;-1.93;77.31;102814.81;1745829;81;20937;-52
2021/10/07 03:46:45;;;;;;;23.55;9.28;;;;;;;-1.90;77.31;102817.56;1746058;82;20963;-52
2021/10/07 03:49:13;;;;;;;33.80;11.73;;;;;;;-1.89;77.43;102812.61;1746082;82;21140;-51
2021/10/07 03:51:40;;;;;;;24.85;8.43;;;;;;;-1.89;77.58;102816.81;1745806;81;21608;-52
2021/10/07 03:54:06;;;;;;;17.05;6.87;;;;;;;-1.89;77.64;102818.09;1746039;82;20980;-52
2021/10/07 03:56:32;;;;;;;18.02;7.15;;;;;;;-1.91;77.75;102817.97;1746065;82;21011;-51
2021/10/07 03:58:59;;;;;;;17.80;6.00;;;;;;;-1.91;77.88;102819.61;1746005;82;20960;-52
2021/10/07 04:01:25;;;;;;;12.55;4.58;;;;;;;-1.89;78.00;102826.57;1745917;81;21570;-52
2021/10/07 04:03:51;;;;;;;12.28;4.30;;;;;;;-1.89;78.18;102825.70;1745765;82;20909;-52
2021/10/07 04:06:18;;;;;;;13.48;6.10;;;;;;;-1.86;78.30;102826.30;1745901;82;21007;-54
2021/10/07 04:08:45;;;;;;;17.05;8.25;;;;;;;-1.82;78.57;102829.53;1746025;82;20960;-52
2021/10/07 04:11:11;;;;;;;16.90;9.85;;;;;;;-1.77;78.51;102827.83;1746064;82;20979;-52
2021/10/07 04:13:38;;;;;;;16.20;8.33;;;;;;;-1.71;78.72;102823.94;1745901;82;21152;-52
2021/10/07 04:16:05;;;;;;;6.50;4.37;;;;;;;-1.63;78.70;102835.55;1745947;82;20987;-53
2021/10/07 04:18:31;;;;;;;11.35;5.85;;;;;;;-1.58;78.65;102838.02;1724992;82;20940;-52
2021/10/07 04:20:57;;;;;;;15.63;6.22;;;;;;;-1.52;78.46;102829.54;1745905;82;20932;-52
2021/10/07 04:23:24;;;;;;;10.68;5.90;;;;;;;-1.44;78.43;102831.34;1745981;82;21019;-51
2021/10/07 04:25:50;;;;;;;9.88;3.27;;;;;;;-1.38;78.31;102841.06;1746017;82;21115;-52
2021/10/07 04:28:16;;;;;;;4.53;3.15;;;;;;;-1.30;78.10;102839.52;1745704;81;20893;-51
2021/10/07 04:30:43;;;;;;;4.62;3.25;;;;;;;-1.22;77.96;102831.14;1745802;82;20921;-52
2021/10/07 04:33:11;;;;;;;12.40;3.50;;;;;;;-1.12;77.56;102836.87;1745818;81;20917;-52
2021/10/07 04:35:39;;;;;;;4.58;2.80;;;;;;;-1.01;77.31;102832.11;1724758;81;20948;-52
2021/10/07 04:38:06;;;;;;;7.03;3.75;;;;;;;-0.87;76.97;102830.49;1724823;82;21870;-51
2021/10/07 04:40:32;;;;;;;7.75;4.12;;;;;;;-0.73;76.65;102829.76;1745898;82;21536;-51
2021/10/07 04:42:59;;;;;;;8.13;3.35;;;;;;;-0.59;76.27;102836.13;1749440;80;21479;-52
2021/10/07 04:45:26;;;;;;;9.60;3.58;;;;;;;-0.45;75.76;102835.38;1764383;81;20994;-52
2021/10/07 04:47:52;;;;;;;10.58;3.40;;;;;;;-0.27;75.18;102840.28;1764652;81;21439;-51
2021/10/07 04:50:19;;;;;;;8.03;3.40;;;;;;;-0.12;74.74;102843.83;1764393;81;21550;-52
2021/10/07 04:52:45;;;;;;;7.60;2.77;;;;;;;0.04;74.23;102846.95;1764437;81;21487;-52
2021/10/07 04:55:11;;;;;;;4.45;2.50;;;;;;;0.17;73.58;102849.88;1764575;81;21079;-52
2021/10/07 04:59:40;;;;;;;7.12;2.45;;;;;;;0.46;72.20;102841.89;1815370;79;22589;-51
2021/10/07 05:02:07;;;;;;;9.20;2.87;;;;;;;0.59;71.35;102852.44;1788683;80;20892;-51
2021/10/07 05:04:33;;;;;;;6.45;2.58;;;;;;;0.73;69.99;102848.56;1752230;80;21248;-50
2021/10/07 05:07:00;;;;;;;7.35;2.27;;;;;;;0.88;69.46;102842.22;1778077;80;21002;-51
2021/10/07 05:09:26;;;;;;;5.15;2.12;;;;;;;1.02;68.18;102848.17;1778384;80;20936;-52
2021/10/07 05:11:53;;;;;;;6.95;2.12;;;;;;;1.16;67.48;102845.16;1778493;80;20991;-53
2021/10/07 05:14:19;;;;;;;7.30;2.62;;;;;;;1.30;66.67;102848.11;1778330;80;21524;-52
2021/10/07 05:16:46;;;;;;;3.80;2.17;;;;;;;1.43;65.80;102850.59;1778276;80;22114;-53
2021/10/07 05:19:12;;;;;;;9.13;2.67;;;;;;;1.57;65.15;102850.48;1778160;80;21630;-52
2021/10/07 05:21:39;;;;;;;8.45;2.70;;;;;;;1.67;64.75;102842.95;1778274;80;21591;-52
2021/10/07 05:24:06;;;;;;;8.88;2.60;;;;;;;1.78;64.42;102844.84;1778263;80;20980;-53
2021/10/07 05:26:32;;;;;;;3.47;2.58;;;;;;;1.88;63.98;102850.94;1778286;80;20980;-51
2021/10/07 05:28:59;;;;;;;8.03;2.92;;;;;;;1.97;63.78;102855.68;1778166;80;21135;-53
2021/10/07 05:31:25;;;;;;;10.93;2.40;;;;;;;2.06;63.59;102848.55;1749735;80;21023;-52
2021/10/07 05:33:52;;;;;;;14.93;3.37;;;;;;;2.16;63.25;102852.48;1778255;80;21011;-52
2021/10/07 05:36:18;;;;;;;8.63;2.60;;;;;;;2.25;62.46;102849.14;1777978;80;20983;-53
2021/10/07 05:38:44;;;;;;;8.50;2.40;;;;;;;2.34;61.85;102844.94;1778230;80;21081;-51
2021/10/07 05:41:11;;;;;;;7.20;2.17;;;;;;;2.46;61.70;102852.77;1778218;80;21724;-51
2021/10/07 05:43:37;;;;;;;7.80;2.08;;;;;;;2.57;61.42;102847.42;1778322;80;21438;-51
2021/10/07 05:46:03;;;;;;;5.83;2.10;;;;;;;2.69;60.82;102855.28;1778144;80;21023;-53
2021/10/07 05:48:30;;;;;;;11.85;2.60;;;;;;;2.79;61.11;102852.39;1778274;80;21477;-53
2021/10/07 05:50:56;;;;;;;7.12;2.50;;;;;;;2.90;60.60;102845.28;1749708;80;21383;-52
2021/10/07 05:53:23;;;;;;;4.20;2.55;;;;;;;3.01;60.09;102849.67;1778134;80;21782;-53
2021/10/07 05:55:49;;;;;;;9.63;2.35;;;;;;;3.11;59.89;102843.34;1778085;80;21526;-53
2021/10/07 05:58:16;;;;;;;6.08;2.65;;;;;;;3.22;59.16;102846.45;1774056;80;21589;-52
2021/10/07 06:00:42;;;;;;;7.15;2.40;;;;;;;3.34;58.64;102854.73;1764940;80;20955;-51
2021/10/07 06:03:09;;;;;;;7.53;2.80;;;;;;;3.45;58.28;102854.88;1764931;80;20996;-52
2021/10/07 06:05:38;;;;;;;12.68;2.60;;;;;;;3.58;57.46;102850.34;1764835;81;21271;-51
2021/10/07 06:08:06;;;;;;;9.63;2.77;;;;;;;3.67;57.07;102852.09;1764748;81;20941;-51
2021/10/07 06:10:33;;;;;;;11.12;2.90;;;;;;;3.78;56.50;102855.14;1764418;81;20983;-51
2021/10/07 06:13:00;;;;;;;9.63;2.75;;;;;;;3.89;57.03;102858.22;1764122;81;21491;-53
2021/10/07 06:15:27;;;;;;;7.42;2.80;;;;;;;4.14;55.54;102852.97;1744711;81;20957;-52
2021/10/07 06:17:55;;;;;;;7.85;3.37;;;;;;;4.14;55.54;102852.97;1764147;81;21064;-52
2021/10/07 06:22:51;;;;;;;6.22;3.72;;;;;;;4.36;55.24;102859.09;1764135;81;20972;-51
2021/10/07 06:25:17;;;;;;;7.60;3.42;;;;;;;4.45;55.22;102853.13;1764346;81;20968;-51
2021/10/07 06:27:44;;;;;;;9.30;4.00;;;;;;;4.68;54.49;102843.87;1764268;81;20996;-52
2021/10/07 06:30:11;;;;;;;15.50;4.47;;;;;;;4.68;54.49;102843.87;1764105;81;21261;-51
2021/10/07 06:32:38;;;;;;;18.10;6.22;;;;;;;4.81;54.55;102850.84;1764260;81;20897;-51
2021/10/07 06:35:06;;;;;;;24.67;5.87;;;;;;;4.98;52.63;102837.45;1764203;81;21564;-51
2021/10/07 06:37:32;;;;;;;26.20;6.50;;;;;;;5.07;52.61;102839.55;1764247;81;20906;-51
2021/10/07 06:39:59;;;;;;;18.80;6.15;;;;;;;5.13;52.75;102839.38;1764378;81;21554;-51
2021/10/07 06:42:25;;;;;;;15.30;6.78;;;;;;;5.25;52.62;102844.57;1764389;81;21104;-52
2021/10/07 06:44:52;;;;;;;21.60;7.78;;;;;;;5.31;52.57;102843.53;1764274;81;20969;-53
2021/10/07 06:47:18;;;;;;;20.95;7.80;;;;;;;5.31;51.74;102851.23;1744612;81;20980;-53
2021/10/07 06:49:45;;;;;;;25.20;8.13;;;;;;;5.28;52.18;102845.98;1764308;81;20999;-53
2021/10/07 06:52:12;;;;;;;20.37;7.70;;;;;;;5.35;51.97;102853.12;1764217;81;20964;-53
2021/10/07 06:54:39;;;;;;;29.25;8.93;;;;;;;5.39;51.86;102849.86;1744764;81;20937;-53
2021/10/07 06:57:06;;;;;;;21.68;9.03;;;;;;;5.51;51.56;102843.48;1744708;81;21020;-53
2021/10/07 06:59:33;;;;;;;22.75;9.20;;;;;;;5.62;51.37;102843.50;1766211;80;20924;-52
2021/10/07 07:01:59;;;;;;;21.75;9.63;;;;;;;5.76;50.80;102840.19;1767151;81;20898;-53
2021/10/07 07:04:26;;;;;;;31.37;10.78;;;;;;;5.94;50.44;102836.60;1738925;81;20953;-52
2021/10/07 07:06:54;;;;;;;31.15;12.47;;;;;;;6.07;50.01;102843.13;1767197;81;21403;-53
2021/10/07 07:09:20;;;;;;;29.80;13.70;;;;;;;6.22;49.90;102847.98;1767047;80;20941;-53
2021/10/07 07:11:47;;;;;;;46.60;15.35;;;;;;;6.36;49.56;102849.39;1767292;81;21541;-53
2021/10/07 07:14:13;;;;;;;27.90;13.88;;;;;;;6.53;48.70;102843.97;1767255;80;20964;-53
2021/10/07 07:16:41;;;;;;;37.88;15.90;;;;;;;6.65;48.89;102848.30;1739154;81;21584;-52
2021/10/07 07:19:08;;;;;;;39.90;14.35;;;;;;;6.79;49.15;102844.92;1767276;81;21145;-52
2021/10/07 07:21:36;;;;;;;41.92;13.28;;;;;;;6.94;48.30;102839.83;1767126;81;21522;-53
2021/10/07 07:24:04;;;;;;;29.85;11.88;;;;;;;7.08;47.83;102841.62;1767266;81;22116;-53
2021/10/07 07:26:32;;;;;;;34.15;11.05;;;;;;;7.16;46.87;102837.17;1767176;80;21025;-53
2021/10/07 07:28:59;;;;;;;34.85;10.98;;;;;;;7.16;47.28;102833.30;1767103;80;20956;-52
2021/10/07 07:31:26;;;;;;;31.20;8.85;;;;;;;7.19;46.96;102834.69;1767290;81;21123;-52
2021/10/07 07:33:53;;;;;;;31.10;8.35;;;;;;;7.23;46.70;102829.24;1767087;81;20984;-52
2021/10/07 07:36:25;;;;;;;28.65;7.90;;;;;;;7.26;46.79;102829.34;1767259;81;20933;-52
2021/10/07 07:38:51;;;;;;;26.70;9.20;;;;;;;7.28;46.26;102822.53;1767126;81;20944;-53
2021/10/07 07:41:18;;;;;;;18.60;7.92;;;;;;;7.33;46.13;102825.27;1767343;81;20929;-53
2021/10/07 07:43:45;;;;;;;30.62;9.70;;;;;;;7.44;44.75;102814.03;1767265;81;21115;-53
2021/10/07 07:46:12;;;;;;;31.02;9.40;;;;;;;7.56;43.70;102814.84;1767107;81;20980;-52
2021/10/07 07:48:39;;;;;;;32.15;10.03;;;;;;;7.72;44.33;102818.38;1767340;81;20980;-52
2021/10/07 07:51:05;;;;;;;30.57;7.80;;;;;;;7.93;42.75;102813.82;1767220;81;21561;-52
2021/10/07 07:53:32;;;;;;;30.77;8.65;;;;;;;8.12;40.69;102801.05;1767057;81;20929;-52
2021/10/07 07:55:58;;;;;;;37.17;9.35;;;;;;;8.27;38.73;102805.38;1767269;81;21897;-52
2021/10/07 07:58:25;;;;;;;40.98;9.30;;;;;;;8.33;38.64;102804.25;1766714;81;21518;-52
2021/10/07 08:00:51;;;;;;;26.45;8.18;;;;;;;8.42;39.27;102794.61;1764253;81;20906;-52
2021/10/07 08:03:18;;;;;;;28.47;6.65;;;;;;;8.62;38.89;102790.45;1764116;80;20933;-52
2021/10/07 08:05:44;;;;;;;32.80;6.22;;;;;;;8.85;36.75;102781.14;1764298;81;21019;-52
2021/10/07 08:08:11;;;;;;;30.95;4.95;;;;;;;8.92;35.43;102799.83;1764254;81;21170;-52
2021/10/07 08:10:38;;;;;;;22.90;4.60;;;;;;;8.98;35.09;102792.66;1764052;81;21000;-52
2021/10/07 08:13:04;;;;;;;33.28;5.50;;;;;;;9.05;35.32;102790.25;1764188;81;21035;-52
2021/10/07 08:15:31;;;;;;;30.43;5.20;;;;;;;9.15;34.45;102783.61;1764209;81;21023;-53
2021/10/07 08:17:58;;;;;;;36.00;4.03;;;;;;;9.23;35.19;102780.36;1764198;81;20975;-53
2021/10/07 08:20:24;;;;;;;40.38;4.12;;;;;;;9.30;33.28;102779.66;1764255;81;21101;-53
2021/10/07 08:22:51;;;;;;;15.10;3.72;;;;;;;9.24;34.02;102775.64;1764231;81;21547;-53
2021/10/07 08:25:19;;;;;;;22.37;3.37;;;;;;;9.27;34.11;102776.57;1764159;81;21554;-53
2021/10/07 08:27:45;;;;;;;16.57;3.50;;;;;;;9.40;34.87;102788.08;1764232;81;21684;-53
2021/10/07 08:30:14;;;;;;;24.10;4.30;;;;;;;9.63;34.50;102782.57;1764153;81;21519;-53
2021/10/07 08:32:41;;;;;;;24.02;3.22;;;;;;;9.84;34.10;102773.11;1744654;81;21032;-53
2021/10/07 08:35:08;;;;;;;21.87;2.55;;;;;;;10.03;32.17;102767.04;1744333;81;21601;-53
2021/10/07 08:37:35;;;;;;;10.35;2.42;;;;;;;9.90;32.75;102787.89;1744775;81;20937;-52
2021/10/07 08:40:05;;;;;;;7.15;2.30;;;;;;;9.87;33.73;102781.38;1764022;81;20976;-52
2021/10/07 08:42:32;;;;;;;18.87;2.95;;;;;;;10.13;33.78;102766.81;1764172;81;21023;-52
2021/10/07 08:45:01;;;;;;;12.80;2.60;;;;;;;10.39;32.33;102755.69;1744512;81;21186;-52
2021/10/07 08:47:29;;;;;;;29.27;2.70;;;;;;;10.42;33.58;102774.30;1764142;81;20960;-53
2021/10/07 08:49:56;;;;;;;33.15;2.35;;;;;;;10.71;31.64;102765.80;1764169;81;20980;-52
2021/10/07 08:52:22;;;;;;;9.03;2.00;;;;;;;10.70;30.91;102765.75;1764134;81;21000;-52
2021/10/07 08:54:49;;;;;;;28.80;4.10;;;;;;;10.55;31.81;102752.99;1744465;81;20969;-52
2021/10/07 08:57:15;;;;;;;16.48;3.62;;;;;;;10.60;31.61;102756.53;1764121;81;21860;-53
2021/10/07 08:59:42;;;;;;;21.10;2.55;;;;;;;10.76;31.60;102757.67;1765476;81;21483;-53
2021/10/07 09:02:31;;;;;;;35.88;11.73;;;;;;;11.03;30.44;102751.65;1767249;81;20897;-53
2021/10/07 09:05:19;;;;;;;65.37;25.75;;;;;;;11.14;29.21;102725.47;1767226;80;21502;-52
2021/10/07 09:07:58;;;;;;;83.07;34.35;;;;;;;10.93;30.13;102746.73;1767355;81;21407;-52
2021/10/07 09:10:57;;;;;;;58.00;22.10;;;;;;;10.81;29.50;102748.70;1725533;82;21065;-53
2021/10/07 09:13:28;;;;;;;232.80;108.85;;;;;;;10.70;29.05;102746.33;1766972;81;22099;-53
2021/10/07 09:15:57;;;;;;;88.45;49.18;;;;;;;10.74;30.18;102739.08;1745018;80;20998;-53
2021/10/07 09:18:26;;;;;;;47.53;16.62;;;;;;;11.01;30.50;102745.58;1744868;81;20996;-53
2021/10/07 09:20:55;;;;;;;26.97;13.32;;;;;;;11.30;29.72;102739.97;1765354;81;20960;-55
2021/10/07 09:23:29;;;;;;;23.15;3.42;;;;;;;11.52;29.14;102741.14;1766949;81;21198;-54
2021/10/07 09:26:06;;;;;;;29.12;8.78;;;;;;;11.63;29.08;102744.77;1766502;80;20957;-53
2021/10/07 09:28:58;;;;;;;21.15;2.90;;;;;;;11.72;29.61;102737.51;1767097;81;20984;-54
2021/10/07 09:31:29;;;;;;;20.30;5.53;;;;;;;11.90;30.32;102734.30;1760524;81;20983;-53
2021/10/07 09:34:03;;;;;;;23.32;5.92;;;;;;;12.29;29.91;102733.89;1763919;81;21486;-52
2021/10/07 09:36:30;;;;;;;16.37;5.28;;;;;;;12.67;28.94;102733.83;1766524;81;21141;-52
2021/10/07 09:38:58;;;;;;;21.10;6.83;;;;;;;12.68;28.01;102734.27;1760464;81;20908;-53
2021/10/07 09:41:30;;;;;;;19.65;2.40;;;;;;;12.64;27.71;102726.45;1753147;81;20953;-52
2021/10/07 09:44:03;;;;;;;89.37;49.93;;;;;;;12.49;28.49;102723.69;1736668;82;21000;-51
2021/10/07 09:46:47;;;;;;;34.53;19.77;;;;;;;12.52;28.11;102722.45;1745267;81;21035;-52
2021/10/07 09:49:23;;;;;;;26.68;8.85;;;;;;;12.47;28.48;102713.30;1766078;81;21123;-52
2021/10/07 09:51:53;;;;;;;23.87;2.60;;;;;;;12.53;28.23;102706.42;1721415;81;20972;-53
2021/10/07 09:54:27;;;;;;;32.50;5.10;;;;;;;12.57;28.31;102702.58;1766973;81;21019;-53
2021/10/07 09:57:00;;;;;;;20.10;3.25;;;;;;;12.60;28.73;102701.30;1737674;81;21577;-53
2021/10/07 09:59:29;;;;;;;24.85;3.45;;;;;;;12.67;28.15;102687.05;1735504;82;20949;-54
2021/10/07 10:01:56;;;;;;;25.15;2.90;;;;;;;12.77;27.64;102706.63;1733778;82;21171;-54
2021/10/07 10:04:25;;;;;;;15.03;2.77;;;;;;;12.60;28.39;102697.41;1733813;81;21015;-53
2021/10/07 10:06:52;;;;;;;16.97;2.35;;;;;;;12.58;28.86;102698.23;1733900;82;20968;-53
2021/10/07 10:09:26;;;;;;;12.58;2.70;;;;;;;12.61;28.49;102692.65;1743812;81;20953;-53
2021/10/07 10:11:52;;;;;;;11.38;2.02;;;;;;;12.72;27.32;102696.64;1757185;81;20980;-54
2021/10/07 10:14:21;;;;;;;18.73;2.65;;;;;;;12.69;27.21;102690.53;1764280;81;20976;-53
2021/10/07 10:16:49;;;;;;;15.00;4.25;;;;;;;12.70;27.73;102681.47;1764161;80;20988;-53
2021/10/07 10:19:16;;;;;;;18.92;2.67;;;;;;;12.81;27.71;102682.85;1769380;81;21471;-54
2021/10/07 10:21:43;;;;;;;18.17;2.00;;;;;;;12.87;27.46;102681.59;1763917;81;21490;-53
2021/10/07 10:24:11;;;;;;;11.60;2.05;;;;;;;12.92;27.72;102688.98;1711265;81;21569;-53
2021/10/07 10:26:38;;;;;;;15.68;1.82;;;;;;;13.03;27.12;102677.81;1743832;81;21828;-53
2021/10/07 10:29:20;;;;;;;35.28;2.12;;;;;;;13.06;26.60;102673.48;1734787;81;20923;-53
2021/10/07 10:31:52;;;;;;;17.70;2.02;;;;;;;13.05;26.22;102666.55;1729152;82;21633;-53
2021/10/07 10:34:20;;;;;;;18.35;2.55;;;;;;;12.94;26.43;102672.97;1732370;82;20950;-53
2021/10/07 10:36:57;;;;;;;16.40;2.40;;;;;;;12.82;26.46;102680.69;1732441;82;21002;-53
2021/10/07 10:39:37;;;;;;;10.13;1.95;;;;;;;12.81;27.00;102680.25;1722726;80;21807;-54
2021/10/07 10:42:08;;;;;;;18.35;1.98;;;;;;;12.86;26.54;102675.95;1750064;81;20996;-54
2021/10/07 10:44:57;;;;;;;13.28;1.70;;;;;;;12.76;26.03;102677.61;1753296;81;20929;-54
2021/10/07 10:47:31;;;;;;;18.45;1.90;;;;;;;12.55;26.55;102674.42;1756592;81;20976;-54
2021/10/07 10:50:10;;;;;;;10.55;1.22;;;;;;;12.50;27.21;102668.28;1745191;81;21019;-54
2021/10/07 10:52:53;;;;;;;12.23;1.50;;;;;;;12.49;26.64;102657.05;1751519;81;21149;-54
2021/10/07 10:55:28;;;;;;;12.40;2.33;;;;;;;12.50;26.60;102673.06;1752903;81;20885;-54
2021/10/07 10:58:05;;;;;;;13.58;1.25;;;;;;;12.59;26.61;102667.50;1762199;81;20995;-54
2021/10/07 11:00:36;;;;;;;12.88;1.60;;;;;;;12.58;26.62;102666.64;1737589;81;22117;-54
2021/10/07 11:03:26;;;;;;;13.93;1.55;;;;;;;12.52;26.85;102669.20;1757308;81;21478;-53
2021/10/07 11:05:59;;;;;;;;;;;;;;;12.28;27.34;102662.03;1766036;81;21083;-53
2021/10/07 11:08:28;;;;;;;13.00;1.95;;;;;;;12.02;28.07;102668.72;1759525;81;20143;-54
2021/10/07 11:10:55;;;;;;;10.85;1.82;;;;;;;11.88;27.94;102657.27;1750354;81;21449;-53
2021/10/07 11:13:29;;;;;;;8.80;1.80;;;;;;;11.83;27.71;102655.91;1744661;81;21415;-53
2021/10/07 11:16:03;;;;;;;18.67;1.92;;;;;;;11.86;27.85;102669.36;1765476;81;21458;-53
2021/10/07 11:18:33;;;;;;;14.15;1.40;;;;;;;12.02;27.45;102659.64;1760941;81;21095;-52
2021/10/07 11:21:09;;;;;;;16.48;1.90;;;;;;;12.02;28.22;102641.47;1769415;81;20932;-53
2021/10/07 11:23:36;;;;;;;2.75;1.10;;;;;;;12.11;27.50;102647.15;1752056;81;21003;-53
2021/10/07 11:26:03;;;;;;;15.38;1.40;;;;;;;12.27;28.44;102657.70;1748946;81;20964;-53
2021/10/07 11:28:37;;;;;;;6.87;1.35;;;;;;;12.53;28.39;102651.45;1752395;81;21015;-53
2021/10/07 11:31:13;;;;;;;6.70;1.37;;;;;;;12.71;26.30;102649.42;1769660;81;21079;-53
2021/10/07 11:33:43;;;;;;;12.50;1.30;;;;;;;12.55;25.60;102647.14;1760067;81;20972;-55
2021/10/07 11:36:14;;;;;;;10.88;1.57;;;;;;;12.31;27.14;102651.27;1741164;81;20929;-55
2021/10/07 11:38:44;;;;;;;10.55;1.35;;;;;;;12.41;28.03;102651.33;1732458;81;20995;-54